West Lebanon, Pennsylvania
Current Conditions -  °F | °C
As of 7:15 PM on Sunday 25 Jan 2015 (Local Time) from KIDI Reporting Station
Haze Haze  
Wind Chill: -3°   Ceiling: 300
Heat Index:   Visibility: 1.5mi
Dew Point:   Wind: 6mph
Humidity: 100%   Direction: NA
Pressure: 29.84"   Gusts: NA
Location:  40.6°N, 79.35°W
Report Text: KIDI 260015Z AUTO VRB05KT 1 1/2SM BR BKN003 BKN008 OVC020 M00/M00 A2984 RMK A01
Loading
Personal Weather Stations






























Interactive Weather Map New forecast layout! Learn more

10-Day Weather Forecast

Advertisements
Track Severe Weather on mobile